createdAt,value
2019-05-13T10:58:04.891Z,740
2019-05-13T10:59:05.374Z,725
2019-05-13T11:00:08.318Z,715
2019-05-13T11:01:05.275Z,700
2019-05-13T11:02:04.823Z,665
2019-05-13T11:03:02.632Z,645
2019-05-13T11:04:05.091Z,615
2019-05-13T11:05:05.507Z,590
2019-05-13T11:06:02.667Z,580
2019-05-13T11:07:05.314Z,575
2019-05-13T11:08:04.496Z,570
2019-05-13T11:09:04.480Z,570
2019-05-13T11:10:05.189Z,580
2019-05-13T11:11:04.560Z,595
2019-05-13T11:12:04.474Z,610
2019-05-13T11:13:06.000Z,610
2019-05-13T11:16:22.464Z,555
2019-05-13T11:16:32.512Z,555
2019-05-13T11:17:42.619Z,535
2019-05-13T11:18:34.021Z,520
2019-05-13T11:19:40.910Z,505
2019-05-13T11:20:34.850Z,500
2019-05-13T11:21:34.707Z,475
2019-05-13T11:22:34.979Z,460
2019-05-13T11:23:34.732Z,430
2019-05-13T11:24:34.922Z,405
2019-05-13T11:25:34.590Z,375
2019-05-13T11:26:38.435Z,360
2019-05-13T11:27:34.862Z,350
2019-05-13T11:28:34.502Z,350
2019-05-13T11:29:34.908Z,365
2019-05-13T11:30:34.413Z,410
2019-05-13T11:31:35.282Z,475
2019-05-13T11:32:34.190Z,545
2019-05-13T11:33:34.257Z,605
2019-05-13T11:34:35.519Z,635
2019-05-13T11:35:34.394Z,635
2019-05-13T11:36:35.920Z,620
2019-05-13T11:37:34.472Z,585
2019-05-13T11:38:35.177Z,540
2019-05-13T11:39:34.809Z,500
2019-05-13T11:40:34.253Z,475
2019-05-13T11:41:35.054Z,450
2019-05-13T11:42:35.233Z,415
2019-05-13T11:43:41.335Z,390
2019-05-13T11:44:34.626Z,350
2019-05-13T11:45:34.024Z,315
2019-05-13T11:46:35.451Z,295
2019-05-13T11:47:34.710Z,280
2019-05-13T11:48:34.899Z,290
2019-05-13T11:49:34.111Z,310
2019-05-13T11:50:33.057Z,325
2019-05-13T11:51:36.897Z,350
2019-05-13T11:52:34.067Z,375
2019-05-13T11:53:48.849Z,400
2019-05-13T11:54:32.378Z,410
2019-05-13T11:55:32.385Z,415
2019-05-13T11:56:36.213Z,405
2019-05-13T11:57:34.065Z,390
2019-05-13T11:58:35.104Z,385
2019-05-13T11:59:35.285Z,380
2019-05-13T12:00:34.171Z,370
2019-05-13T12:01:35.774Z,345
2019-05-13T12:02:35.227Z,320
2019-05-13T12:03:34.892Z,305
2019-05-13T12:04:37.003Z,285
2019-05-13T12:05:35.099Z,290
2019-05-13T12:06:44.324Z,305
2019-05-13T12:07:35.480Z,310
2019-05-13T12:08:36.526Z,320
2019-05-13T12:09:34.482Z,345
2019-05-13T12:10:35.109Z,365
2019-05-13T12:11:35.661Z,390
2019-05-13T12:15:45.849Z,375
2019-05-13T12:17:57.611Z,390
2019-05-13T12:18:57.546Z,370
2019-05-13T12:19:58.923Z,345
2019-05-13T12:20:58.632Z,325
2019-05-13T12:22:01.776Z,310
2019-05-13T12:22:56.839Z,305
2019-05-13T12:23:57.612Z,310
2019-05-13T12:24:57.095Z,320
2019-05-13T12:25:57.887Z,325
2019-05-13T12:26:58.069Z,335
2019-05-13T12:27:56.759Z,370
2019-05-13T12:28:58.280Z,420
2019-05-13T12:29:57.739Z,470
2019-05-13T12:30:57.705Z,490
2019-05-13T12:31:57.491Z,520
2019-05-13T12:32:57.171Z,540
2019-05-13T12:33:56.994Z,570
2019-05-13T12:34:57.538Z,585
2019-05-13T12:35:58.357Z,595
2019-05-13T12:36:54.626Z,580
2019-05-13T12:37:58.136Z,545
2019-05-13T12:38:58.393Z,515
2019-05-13T12:39:57.902Z,460
2019-05-13T12:40:57.959Z,410
2019-05-13T12:41:58.436Z,385
2019-05-13T12:43:01.935Z,350
2019-05-13T12:43:58.096Z,325
2019-05-13T12:45:22.217Z,310
2019-05-13T12:45:57.949Z,305
2019-05-13T12:47:03.261Z,300
2019-05-13T12:47:57.807Z,300
2019-05-13T12:48:54.595Z,285
2019-05-13T12:49:54.823Z,255
2019-05-13T12:50:58.547Z,215
2019-05-13T12:52:04.526Z,200
2019-05-13T12:52:56.330Z,195
2019-05-13T12:53:57.430Z,205
2019-05-13T12:54:57.822Z,205
2019-05-13T12:58:07.635Z,210
2019-05-13T12:58:19.531Z,210
2019-05-13T12:59:22.197Z,220
2019-05-13T13:00:23.571Z,230
2019-05-13T13:01:23.534Z,235
2019-05-13T13:02:22.535Z,250
2019-05-13T13:03:23.095Z,270
2019-05-13T13:04:23.591Z,285
2019-05-13T13:05:38.641Z,310
2019-05-13T13:08:54.593Z,375
2019-05-13T13:10:04.460Z,410
2019-05-13T13:11:04.696Z,430
2019-05-13T13:12:05.066Z,445
2019-05-13T13:13:06.997Z,450
2019-05-13T13:14:22.306Z,460
2019-05-13T13:15:43.216Z,470
2019-05-13T13:16:08.404Z,455
2019-05-13T13:17:08.705Z,435
2019-05-13T13:18:07.127Z,430
2019-05-13T13:19:07.124Z,420
2019-05-13T13:20:24.158Z,420
2019-05-13T13:21:19.351Z,430
2019-05-13T13:22:18.282Z,440
2019-05-13T13:23:12.547Z,440
2019-05-13T13:24:09.057Z,425
2019-05-13T13:25:13.167Z,405
2019-05-13T13:26:21.656Z,380
2019-05-13T13:28:36.722Z,380
2019-05-13T13:29:36.231Z,405
2019-05-13T13:30:37.824Z,415
2019-05-13T13:31:38.326Z,400
2019-05-13T13:32:37.840Z,375
2019-05-13T13:33:36.686Z,380
2019-05-13T13:34:38.538Z,405
2019-05-13T13:35:36.275Z,425
2019-05-13T13:36:38.225Z,425
2019-05-13T13:37:37.125Z,410
2019-05-13T13:38:37.471Z,425
2019-05-13T13:39:37.275Z,455
2019-05-13T13:40:46.917Z,465
2019-05-13T13:41:35.287Z,455
2019-05-13T13:42:35.535Z,435
2019-05-13T13:43:44.391Z,420
2019-05-13T13:46:57.514Z,390
2019-05-13T13:47:07.425Z,390
2019-05-13T13:48:17.834Z,405
2019-05-13T13:49:06.851Z,420
2019-05-13T13:50:07.371Z,420
2019-05-13T13:51:16.376Z,405
2019-05-13T13:52:07.760Z,370
2019-05-13T13:53:07.460Z,330
2019-05-13T13:54:06.869Z,290
2019-05-13T13:55:25.759Z,260
2019-05-13T13:56:13.288Z,245
2019-05-13T13:57:12.406Z,235
2019-05-13T13:58:09.245Z,230
2019-05-13T13:59:13.698Z,230
2019-05-13T14:01:26.898Z,230
2019-05-13T14:01:40.657Z,230
2019-05-13T14:02:45.562Z,230
2019-05-13T14:03:48.266Z,230
2019-05-13T14:04:37.216Z,235
2019-05-13T14:05:45.330Z,245
2019-05-13T14:07:44.880Z,290
2019-05-13T14:07:56.902Z,295
2019-05-13T14:08:56.849Z,310
2019-05-13T14:09:56.147Z,310
2019-05-13T14:10:56.276Z,310
2019-05-13T14:11:56.347Z,315
2019-05-13T14:13:00.706Z,315
2019-05-13T14:13:56.240Z,315
2019-05-13T14:14:56.885Z,305
2019-05-13T14:15:57.317Z,300
2019-05-13T14:16:58.851Z,305
2019-05-13T14:17:56.499Z,315
2019-05-13T14:18:56.822Z,325
2019-05-13T14:19:56.984Z,340
2019-05-13T14:20:57.600Z,350
2019-05-13T14:21:56.897Z,360
2019-05-13T14:23:05.080Z,370
2019-05-13T14:23:56.576Z,370
2019-05-13T14:24:56.645Z,360
2019-05-13T14:25:57.835Z,350
2019-05-13T14:26:57.917Z,340
2019-05-13T14:27:57.072Z,330
2019-05-13T14:28:57.975Z,320
2019-05-13T14:30:01.275Z,310
2019-05-13T14:31:04.125Z,295
2019-05-13T14:31:56.878Z,290
2019-05-13T14:32:56.737Z,285
2019-05-13T14:33:56.741Z,280
2019-05-13T14:34:57.516Z,275
2019-05-13T14:35:55.515Z,265
2019-05-13T14:37:03.531Z,255
2019-05-13T14:37:56.549Z,250
2019-05-13T14:38:57.127Z,250
2019-05-13T14:39:54.576Z,255
2019-05-13T14:40:56.678Z,270
2019-05-13T14:41:56.544Z,285
2019-05-13T14:42:57.256Z,300
2019-05-13T14:43:56.287Z,325
2019-05-13T14:44:56.786Z,345
2019-05-13T14:46:07.278Z,385
2019-05-13T14:47:01.567Z,410
2019-05-13T14:47:54.525Z,430
2019-05-13T14:48:54.437Z,435
2019-05-13T14:49:57.207Z,430
2019-05-13T14:50:58.960Z,425
2019-05-13T14:52:00.750Z,425
2019-05-13T14:52:57.090Z,420
2019-05-13T14:53:56.577Z,395
2019-05-13T14:54:56.241Z,360
2019-05-13T14:55:56.573Z,330
2019-05-13T14:56:56.935Z,285
2019-05-13T14:57:57.497Z,235
2019-05-13T14:58:56.905Z,195
2019-05-13T14:59:56.199Z,180
2019-05-13T15:01:24.581Z,180
2019-05-13T15:01:56.429Z,190
2019-05-13T15:02:56.600Z,215
2019-05-13T15:03:56.840Z,250
2019-05-13T15:04:57.129Z,285
2019-05-13T15:05:54.761Z,305
2019-05-13T15:06:54.226Z,315
2019-05-13T15:07:57.488Z,320
2019-05-13T15:08:57.066Z,305
2019-05-13T15:09:56.362Z,295
2019-05-13T15:10:58.025Z,275
2019-05-13T15:11:57.434Z,250
2019-05-13T15:12:57.211Z,240
2019-05-13T15:14:04.841Z,245
2019-05-13T15:14:57.139Z,255
2019-05-13T15:15:56.432Z,270
2019-05-13T15:17:17.406Z,295
2019-05-13T15:17:56.718Z,315
2019-05-13T15:18:56.896Z,335
2019-05-13T15:19:54.976Z,370
2019-05-13T15:20:57.042Z,390
2019-05-13T15:21:57.012Z,405
2019-05-13T15:22:56.588Z,410
2019-05-13T15:23:56.582Z,410
2019-05-13T15:24:56.534Z,400
2019-05-13T15:25:56.255Z,385
2019-05-13T15:26:56.481Z,375
2019-05-13T15:27:57.466Z,360
2019-05-13T15:28:56.624Z,345
2019-05-13T15:29:56.488Z,335
2019-05-13T15:30:56.313Z,325
2019-05-13T15:31:56.027Z,310
2019-05-13T15:32:57.217Z,290
2019-05-13T15:33:56.821Z,270
2019-05-13T15:34:56.676Z,245
2019-05-13T15:35:56.620Z,235
2019-05-13T15:36:56.431Z,225
2019-05-13T15:37:57.133Z,225
2019-05-13T15:38:56.364Z,240
2019-05-13T15:39:56.555Z,250
2019-05-13T15:40:56.676Z,260
2019-05-13T15:41:56.967Z,255
2019-05-13T15:42:56.377Z,250
2019-05-13T15:43:56.772Z,235
2019-05-13T15:44:55.795Z,220
2019-05-13T15:45:56.082Z,210
2019-05-13T15:46:59.289Z,205
2019-05-13T15:47:56.303Z,200
2019-05-13T15:48:56.223Z,195
2019-05-13T15:49:54.204Z,190
2019-05-13T15:50:56.126Z,190
2019-05-13T15:51:54.737Z,185
2019-05-13T15:52:54.504Z,180
2019-05-13T15:54:21.897Z,180
2019-05-13T15:54:56.896Z,180
2019-05-13T15:55:56.338Z,175
2019-05-13T15:56:54.394Z,175
2019-05-13T15:57:56.489Z,175
2019-05-13T15:58:57.222Z,180
2019-05-13T15:59:56.623Z,185
2019-05-13T16:00:55.105Z,185
2019-05-13T16:01:57.146Z,190
2019-05-13T16:02:56.979Z,195
2019-05-13T16:03:55.005Z,195
2019-05-13T16:05:11.917Z,200
2019-05-13T16:05:56.454Z,200
2019-05-13T16:06:56.845Z,205
2019-05-13T16:07:56.915Z,215
2019-05-13T16:08:56.737Z,205
2019-05-13T16:09:55.061Z,205
2019-05-13T16:10:55.916Z,205
2019-05-13T16:11:56.858Z,200
2019-05-13T16:12:56.492Z,200
2019-05-13T16:13:55.986Z,195
2019-05-13T16:14:54.282Z,195
2019-05-13T16:15:54.827Z,200
2019-05-13T16:16:54.061Z,195
2019-05-13T16:17:56.788Z,185
2019-05-13T16:18:55.995Z,175
2019-05-13T16:19:55.966Z,165
2019-05-13T16:20:56.798Z,155
2019-05-13T16:21:56.487Z,145
2019-05-13T16:22:55.201Z,145
2019-05-13T16:23:56.591Z,140
2019-05-13T16:24:54.735Z,140
2019-05-13T16:25:56.812Z,140
2019-05-13T16:26:56.807Z,140
2019-05-13T16:27:54.282Z,140
2019-05-13T16:28:56.824Z,140
2019-05-13T16:29:56.196Z,140
2019-05-13T16:30:56.347Z,140
2019-05-13T16:31:54.737Z,140
2019-05-13T16:32:59.259Z,140
2019-05-13T16:33:54.703Z,140
2019-05-13T16:34:56.774Z,140
2019-05-13T16:35:56.187Z,140
2019-05-13T16:36:55.520Z,140
2019-05-13T16:37:53.945Z,135
2019-05-13T16:38:54.562Z,135
2019-05-13T16:39:56.945Z,135
2019-05-13T16:40:56.256Z,135
2019-05-13T16:41:56.392Z,140
2019-05-13T16:42:56.591Z,140
2019-05-13T16:43:53.911Z,140
2019-05-13T16:44:56.257Z,140
2019-05-13T16:45:54.662Z,140
2019-05-13T16:46:55.970Z,135
2019-05-13T16:48:12.287Z,130
2019-05-13T16:48:53.880Z,125
2019-05-13T16:49:55.166Z,120
2019-05-13T16:50:53.861Z,115
2019-05-13T16:51:56.519Z,115
2019-05-13T16:52:55.886Z,110
2019-05-13T16:53:54.762Z,115
2019-05-13T16:54:55.819Z,105
2019-05-13T16:55:55.804Z,100
2019-05-13T16:56:54.310Z,100
2019-05-13T16:57:56.005Z,95
2019-05-13T16:58:54.608Z,95
2019-05-13T16:59:56.332Z,95
2019-05-13T17:00:58.379Z,95
2019-05-13T17:01:55.926Z,95
2019-05-13T17:02:56.478Z,90
2019-05-13T17:03:55.947Z,90
2019-05-13T17:04:54.527Z,90
2019-05-13T17:05:56.053Z,90
2019-05-13T17:06:55.593Z,90
2019-05-13T17:07:56.235Z,90
2019-05-13T17:08:56.315Z,95
2019-05-13T17:09:54.613Z,100
2019-05-13T17:10:56.217Z,105
2019-05-13T17:11:54.351Z,115
2019-05-13T17:12:54.820Z,120
2019-05-13T17:13:56.140Z,125
2019-05-13T17:14:54.792Z,125
2019-05-13T17:15:54.675Z,125
2019-05-13T17:16:54.272Z,120
2019-05-13T17:18:07.117Z,110
2019-05-13T17:18:54.468Z,105
2019-05-13T17:19:58.229Z,95
2019-05-13T17:20:54.462Z,95
2019-05-13T17:21:54.416Z,90
2019-05-13T17:22:55.952Z,85
2019-05-13T17:23:54.809Z,85
2019-05-13T17:24:55.842Z,80
2019-05-13T17:25:54.495Z,80
2019-05-13T17:26:54.694Z,80
2019-05-13T17:27:56.301Z,80
2019-05-13T17:28:54.382Z,80
2019-05-13T17:29:54.133Z,80
2019-05-13T17:30:54.427Z,80
2019-05-13T17:31:53.975Z,80
2019-05-13T17:32:54.033Z,80
2019-05-13T17:33:54.443Z,80
2019-05-13T17:34:56.329Z,80
2019-05-13T17:35:53.572Z,80
2019-05-13T17:36:54.401Z,80
2019-05-13T17:37:55.909Z,80
2019-05-13T17:38:53.545Z,80
2019-05-13T17:39:53.544Z,80
2019-05-13T17:41:02.129Z,80
2019-05-13T17:41:54.637Z,80
2019-05-13T17:42:53.522Z,75
2019-05-13T17:43:54.237Z,75
2019-05-13T17:44:56.414Z,75
2019-05-13T17:45:54.767Z,75
2019-05-13T17:46:54.664Z,80
2019-05-13T17:47:54.464Z,80
2019-05-13T17:48:54.473Z,85
2019-05-13T17:49:54.534Z,85
2019-05-13T17:50:54.558Z,85
2019-05-13T17:51:54.088Z,85
2019-05-13T17:52:56.093Z,80
2019-05-13T17:53:54.213Z,80
2019-05-13T17:54:54.209Z,75
2019-05-13T17:55:54.036Z,75
2019-05-13T17:56:53.412Z,75
2019-05-13T17:57:53.429Z,75
2019-05-13T17:58:53.404Z,70
2019-05-13T17:59:54.575Z,70
2019-05-13T18:00:54.520Z,75
2019-05-13T18:01:54.124Z,75
2019-05-13T18:02:53.887Z,75
2019-05-13T18:03:54.169Z,70
2019-05-13T18:04:54.584Z,70
2019-05-13T18:05:53.914Z,75
2019-05-13T18:06:54.768Z,75
2019-05-13T18:07:53.739Z,75
2019-05-13T18:08:54.234Z,75
2019-05-13T18:09:54.454Z,75
2019-05-13T18:10:53.870Z,70
2019-05-13T18:11:55.267Z,65
2019-05-13T18:12:55.792Z,60
2019-05-13T18:13:54.302Z,60
2019-05-13T18:14:54.135Z,60
2019-05-13T18:15:53.274Z,55
2019-05-13T18:16:53.261Z,55
2019-05-13T18:17:54.747Z,55
2019-05-13T18:18:58.876Z,55
2019-05-13T18:19:53.945Z,55
2019-05-13T18:20:54.504Z,50
2019-05-13T18:21:54.081Z,50
2019-05-13T18:22:54.822Z,50
2019-05-13T18:23:54.599Z,45
2019-05-13T18:24:54.308Z,45
2019-05-13T18:25:53.958Z,45
2019-05-13T18:26:54.524Z,45
2019-05-13T18:27:54.579Z,40
2019-05-13T18:28:53.918Z,40
2019-05-13T18:29:53.766Z,40
2019-05-13T18:30:53.977Z,40
2019-05-13T18:31:54.866Z,40
2019-05-13T18:32:54.191Z,35
2019-05-13T18:33:53.545Z,35
2019-05-13T18:34:53.122Z,35
2019-05-13T18:35:54.971Z,35
2019-05-13T18:36:54.062Z,35
2019-05-13T18:37:53.095Z,30
2019-05-13T18:38:53.084Z,30
2019-05-13T18:39:54.503Z,25
2019-05-13T18:40:55.014Z,25
2019-05-13T18:41:53.281Z,25
2019-05-13T18:42:53.870Z,20
2019-05-13T18:43:56.931Z,20
2019-05-13T18:44:53.795Z,20
2019-05-13T18:45:55.085Z,15
2019-05-13T18:46:54.721Z,15
2019-05-13T18:47:53.789Z,10
2019-05-13T18:49:08.795Z,10
2019-05-13T18:49:53.002Z,10
2019-05-13T18:50:54.853Z,10
2019-05-13T18:51:53.000Z,5
2019-05-13T18:52:54.928Z,5
2019-05-13T18:53:54.354Z,5
2019-05-13T18:54:53.836Z,5
2019-05-13T18:55:54.936Z,5
2019-05-13T18:56:56.950Z,5
2019-05-13T18:57:54.250Z,5
2019-05-13T18:58:52.948Z,5
2019-05-13T18:59:54.495Z,0
2019-05-13T19:00:54.785Z,0
2019-05-13T19:01:55.370Z,0
2019-05-13T19:02:52.895Z,0
2019-05-13T19:03:53.124Z,0
2019-05-13T19:04:54.698Z,0
2019-05-13T19:05:52.865Z,0
2019-05-13T19:06:54.102Z,0
2019-05-13T19:07:53.708Z,0
2019-05-13T19:08:55.167Z,0
2019-05-13T19:09:54.712Z,0
2019-05-13T19:10:54.613Z,0
2019-05-13T19:11:54.004Z,0
2019-05-13T19:12:52.808Z,0
2019-05-13T19:13:54.623Z,0
2019-05-13T19:14:54.097Z,0
2019-05-13T19:15:54.137Z,0
2019-05-13T19:16:52.529Z,0
2019-05-13T19:17:54.480Z,0
2019-05-13T19:18:52.774Z,0
2019-05-13T19:19:53.886Z,0
2019-05-13T19:20:53.766Z,0
2019-05-13T19:21:53.565Z,0
2019-05-13T19:22:54.269Z,0
2019-05-13T19:23:53.500Z,0
2019-05-13T19:24:54.218Z,0
2019-05-13T19:25:53.794Z,0
2019-05-13T19:26:54.542Z,0
2019-05-13T19:27:54.186Z,0
2019-05-13T19:28:54.056Z,0
2019-05-13T19:29:54.690Z,0
2019-05-13T19:30:56.631Z,0
2019-05-13T19:31:53.457Z,0
2019-05-13T19:32:54.484Z,0
2019-05-13T19:33:56.824Z,0
2019-05-13T19:34:54.116Z,0
2019-05-13T19:35:54.252Z,0
2019-05-13T19:36:53.801Z,0
2019-05-13T19:37:54.083Z,0
2019-05-13T19:38:53.469Z,0
2019-05-13T19:39:52.564Z,0
2019-05-13T19:40:52.561Z,0
2019-05-13T19:41:52.551Z,0
2019-05-13T19:42:53.461Z,0
2019-05-13T19:43:53.495Z,0
2019-05-13T19:44:53.626Z,0
2019-05-13T19:45:54.338Z,0
2019-05-13T19:46:54.750Z,0
2019-05-13T19:47:54.299Z,0
2019-05-13T19:48:54.607Z,0
2019-05-13T19:49:57.087Z,0
2019-05-13T19:50:54.558Z,0
2019-05-13T19:51:54.584Z,0
2019-05-13T19:52:54.514Z,0
2019-05-13T19:53:56.338Z,0
2019-05-13T19:54:53.819Z,0
2019-05-13T19:55:54.419Z,0
2019-05-13T19:56:54.454Z,0
2019-05-13T19:57:54.156Z,0
2019-05-13T19:59:05.128Z,0
2019-05-13T19:59:52.377Z,0
2019-05-13T20:00:54.039Z,0
2019-05-13T20:01:54.106Z,0
2019-05-13T20:02:52.358Z,0
2019-05-13T20:03:54.022Z,0
2019-05-13T20:04:54.285Z,0
2019-05-13T20:05:53.828Z,0
2019-05-13T20:06:54.330Z,0
2019-05-13T20:07:54.627Z,0
2019-05-13T20:08:54.218Z,0
2019-05-13T20:09:54.275Z,0
2019-05-13T20:10:53.929Z,0
2019-05-13T20:11:57.550Z,0
2019-05-13T20:12:53.733Z,0
2019-05-13T20:13:54.429Z,0
2019-05-13T20:14:54.222Z,0
2019-05-13T20:15:54.283Z,0
2019-05-13T20:16:54.709Z,0
2019-05-13T20:17:54.422Z,0
2019-05-13T20:18:54.233Z,0
2019-05-13T20:20:02.008Z,0
2019-05-13T20:20:54.265Z,0
2019-05-13T20:21:54.063Z,0
2019-05-13T20:22:54.088Z,0
2019-05-13T20:23:54.202Z,0
2019-05-13T20:24:53.851Z,0
2019-05-13T20:25:54.617Z,0
2019-05-13T20:26:54.496Z,0
2019-05-13T20:27:53.972Z,0
2019-05-13T20:28:53.730Z,0
2019-05-13T20:29:53.593Z,0
2019-05-13T20:30:55.928Z,0
2019-05-13T20:31:54.170Z,0
2019-05-13T20:32:53.995Z,0
2019-05-13T20:33:54.038Z,0
2019-05-13T20:34:53.848Z,0
2019-05-13T20:35:52.075Z,0
2019-05-13T20:36:54.033Z,0
2019-05-13T20:37:54.018Z,0
2019-05-13T20:38:54.040Z,0
2019-05-13T20:39:53.897Z,0
2019-05-13T20:40:54.304Z,0
2019-05-13T20:41:58.054Z,0
2019-05-13T20:42:53.967Z,0
2019-05-13T20:43:54.542Z,0
2019-05-13T20:44:53.790Z,0
2019-05-13T20:45:54.137Z,0
2019-05-13T20:46:54.158Z,0
2019-05-13T20:47:51.906Z,0
2019-05-13T20:48:54.312Z,0
2019-05-13T20:50:07.196Z,0
2019-05-13T20:50:54.231Z,0
2019-05-13T20:51:54.040Z,0
2019-05-13T20:52:54.045Z,0
2019-05-13T20:53:54.116Z,0
2019-05-13T20:54:53.601Z,0
2019-05-13T20:55:52.095Z,0
2019-05-13T20:56:54.114Z,0
2019-05-13T20:57:53.003Z,0
2019-05-13T20:58:53.978Z,0
2019-05-13T20:59:53.946Z,0
2019-05-13T21:00:53.928Z,0
2019-05-13T21:01:53.619Z,0
2019-05-13T21:02:53.999Z,0
2019-05-13T21:03:54.054Z,0
2019-05-13T21:04:51.738Z,0
2019-05-13T21:05:54.430Z,0
2019-05-13T21:06:54.023Z,0
2019-05-13T21:07:53.930Z,0
2019-05-13T21:08:54.509Z,0
2019-05-13T21:09:53.671Z,0
2019-05-13T21:10:54.015Z,0
2019-05-13T21:11:53.793Z,0
2019-05-13T21:12:53.626Z,0
2019-05-13T21:13:54.090Z,0
2019-05-13T21:14:53.617Z,0
2019-05-13T21:15:54.420Z,0
2019-05-13T21:16:53.536Z,0
2019-05-13T21:17:53.901Z,0
2019-05-13T21:18:51.752Z,0
2019-05-13T21:19:59.780Z,0
2019-05-13T21:20:51.570Z,0
2019-05-13T21:21:53.466Z,0
2019-05-13T21:22:54.027Z,0
2019-05-13T21:23:52.155Z,0
2019-05-13T21:24:53.814Z,0
2019-05-13T21:25:53.534Z,0
2019-05-13T21:26:53.585Z,0
2019-05-13T21:27:53.968Z,0
2019-05-13T21:28:52.153Z,0
2019-05-13T21:29:51.909Z,0
2019-05-13T21:30:53.762Z,0
2019-05-13T21:31:52.942Z,0
2019-05-13T21:32:51.798Z,0
2019-05-13T21:33:53.732Z,0
2019-05-13T21:34:53.931Z,0
2019-05-13T21:35:53.619Z,0
2019-05-13T21:36:54.057Z,0
2019-05-13T21:37:53.509Z,0
2019-05-13T21:38:51.134Z,0
2019-05-13T21:39:51.735Z,0
2019-05-13T21:40:52.200Z,0
2019-05-13T21:41:51.887Z,0
2019-05-13T21:42:52.597Z,0
2019-05-13T21:43:51.995Z,0
2019-05-13T21:44:53.736Z,0
2019-05-13T21:45:52.246Z,0
2019-05-13T21:46:51.589Z,0
2019-05-13T21:47:51.277Z,0
2019-05-13T21:48:52.017Z,0
2019-05-13T21:49:54.025Z,0
2019-05-13T21:50:51.737Z,0
2019-05-13T21:51:52.094Z,0
2019-05-13T21:52:53.908Z,0
2019-05-13T21:53:51.845Z,0
2019-05-13T21:54:53.946Z,0
2019-05-13T21:55:51.985Z,0
2019-05-13T21:56:53.986Z,0
2019-05-13T21:57:52.990Z,0
2019-05-13T21:58:52.116Z,0
2019-05-13T21:59:56.393Z,0
2019-05-13T22:00:51.963Z,0
2019-05-13T22:01:52.271Z,0
2019-05-13T22:02:51.564Z,0
2019-05-13T22:03:53.784Z,0
2019-05-13T22:04:51.811Z,0
2019-05-13T22:05:53.819Z,0
2019-05-13T22:06:51.066Z,0
2019-05-13T22:07:51.666Z,0
2019-05-13T22:08:51.776Z,0
2019-05-13T22:09:53.743Z,0
2019-05-13T22:10:52.395Z,0
2019-05-13T22:11:53.573Z,0
2019-05-13T22:12:52.035Z,0
2019-05-13T22:13:53.730Z,0
2019-05-13T22:14:51.700Z,0
2019-05-13T22:15:52.298Z,0
2019-05-13T22:16:51.743Z,0
2019-05-13T22:17:53.689Z,0
2019-05-13T22:18:52.369Z,0
2019-05-13T22:21:14.251Z,0
2019-05-13T22:21:53.886Z,0
2019-05-13T22:22:51.989Z,0
2019-05-13T22:23:51.730Z,0
2019-05-13T22:24:53.572Z,0
2019-05-13T22:25:54.366Z,0
2019-05-13T22:26:53.561Z,0
2019-05-13T22:27:51.818Z,0
2019-05-13T22:28:53.558Z,0
2019-05-13T22:29:51.630Z,0
2019-05-13T22:30:51.754Z,0
2019-05-13T22:31:53.507Z,0
2019-05-13T22:32:52.260Z,0
2019-05-13T22:33:54.263Z,0
2019-05-13T22:34:53.559Z,0
2019-05-13T22:35:52.223Z,0
2019-05-13T22:36:51.671Z,0
2019-05-13T22:37:51.165Z,0
2019-05-13T22:38:54.107Z,0
2019-05-13T22:39:51.663Z,0
2019-05-13T22:40:52.035Z,0
2019-05-13T22:41:52.366Z,0
2019-05-13T22:42:56.579Z,0
2019-05-13T22:44:06.078Z,0
2019-05-13T22:44:52.187Z,0
2019-05-13T22:45:53.547Z,0
2019-05-13T22:46:51.699Z,0
2019-05-13T22:47:52.032Z,0
2019-05-13T22:48:53.588Z,0
2019-05-13T22:49:50.581Z,0
2019-05-13T22:50:52.134Z,0
2019-05-13T22:51:51.536Z,0
2019-05-13T22:52:51.494Z,0
2019-05-13T22:53:51.718Z,0
2019-05-13T22:54:51.804Z,0
2019-05-13T22:55:52.082Z,0
2019-05-13T22:56:52.159Z,0
2019-05-13T22:57:53.490Z,0
2019-05-13T22:58:51.614Z,0
2019-05-13T22:59:51.968Z,0
2019-05-13T23:00:54.086Z,0
2019-05-13T23:01:52.313Z,0
2019-05-13T23:02:54.814Z,0
2019-05-13T23:03:51.459Z,0
2019-05-13T23:04:53.525Z,0
2019-05-13T23:05:52.163Z,0
2019-05-13T23:06:51.935Z,0
2019-05-13T23:07:51.410Z,0
2019-05-13T23:08:50.375Z,0
2019-05-13T23:09:51.892Z,0
2019-05-13T23:10:53.761Z,0
2019-05-13T23:11:53.473Z,0
2019-05-13T23:12:53.920Z,0
2019-05-13T23:14:06.311Z,0
2019-05-13T23:14:51.991Z,0
2019-05-13T23:15:51.593Z,0
2019-05-13T23:16:51.726Z,0
2019-05-13T23:17:54.455Z,0
2019-05-13T23:18:53.598Z,0
2019-05-13T23:19:52.146Z,0
2019-05-13T23:20:51.554Z,0
2019-05-13T23:21:53.506Z,0
2019-05-13T23:22:51.845Z,0
2019-05-13T23:23:51.437Z,0
2019-05-13T23:24:51.305Z,0
2019-05-13T23:25:52.489Z,0
2019-05-13T23:26:53.868Z,0
2019-05-13T23:27:51.390Z,0
2019-05-13T23:28:52.163Z,0
2019-05-13T23:29:51.667Z,0
2019-05-13T23:30:53.475Z,0
2019-05-13T23:31:51.985Z,0
2019-05-13T23:32:51.722Z,0
2019-05-13T23:33:51.190Z,0
2019-05-13T23:34:53.698Z,0
2019-05-13T23:35:51.370Z,0
2019-05-13T23:36:53.938Z,0
2019-05-13T23:37:53.362Z,0
2019-05-13T23:38:51.658Z,0
2019-05-13T23:39:51.965Z,0
2019-05-13T23:40:53.833Z,0
2019-05-13T23:41:52.115Z,0
2019-05-13T23:42:51.745Z,0
2019-05-13T23:43:49.980Z,0
2019-05-13T23:44:51.714Z,0
2019-05-13T23:45:53.514Z,0
2019-05-13T23:46:53.758Z,0
2019-05-13T23:47:53.403Z,0
2019-05-13T23:48:51.964Z,0
2019-05-13T23:49:53.669Z,0
2019-05-13T23:50:52.034Z,0
2019-05-13T23:51:51.990Z,0
2019-05-13T23:52:53.554Z,0
2019-05-13T23:53:53.374Z,0
2019-05-13T23:54:54.148Z,0
2019-05-13T23:55:51.974Z,0
2019-05-13T23:56:51.198Z,0
2019-05-13T23:57:52.432Z,0
2019-05-13T23:58:51.871Z,0
2019-05-13T23:59:53.581Z,0
